createdAt,value
2018-07-12T00:01:00.313Z,14.92
2018-07-12T00:03:32.981Z,15.09
2018-07-12T00:06:05.507Z,15.28
2018-07-12T00:08:38.334Z,15.51
2018-07-12T00:11:10.810Z,15.63
2018-07-12T00:13:43.430Z,15.70
2018-07-12T00:16:15.997Z,15.77
2018-07-12T00:18:48.681Z,15.70
2018-07-12T00:21:21.271Z,15.63
2018-07-12T00:23:54.041Z,15.27
2018-07-12T00:26:26.504Z,15.22
2018-07-12T00:28:59.123Z,15.12
2018-07-12T00:31:31.668Z,14.99
2018-07-12T00:34:04.286Z,15.23
2018-07-12T00:36:36.844Z,14.84
2018-07-12T00:39:09.577Z,14.76
2018-07-12T00:41:42.242Z,14.59
2018-07-12T00:44:14.852Z,14.65
2018-07-12T00:46:47.561Z,14.85
2018-07-12T00:49:20.208Z,14.90
2018-07-12T00:51:52.767Z,14.94
2018-07-12T00:54:25.460Z,14.63
2018-07-12T00:56:58.112Z,14.75
2018-07-12T00:59:30.721Z,14.70
2018-07-12T01:02:03.655Z,14.68
2018-07-12T01:04:36.558Z,14.49
2018-07-12T01:07:09.105Z,14.36
2018-07-12T01:09:41.785Z,14.32
2018-07-12T01:12:14.339Z,14.58
2018-07-12T01:14:46.949Z,14.54
2018-07-12T01:17:19.544Z,14.47
2018-07-12T01:19:52.230Z,14.52
2018-07-12T01:22:24.846Z,14.60
2018-07-12T01:24:57.489Z,14.54
2018-07-12T01:27:30.133Z,14.41
2018-07-12T01:30:02.753Z,14.48
2018-07-12T01:32:35.312Z,14.66
2018-07-12T01:35:07.945Z,14.88
2018-07-12T01:37:40.635Z,14.98
2018-07-12T01:40:13.316Z,15.00
2018-07-12T01:42:46.012Z,15.00
2018-07-12T01:45:18.603Z,15.07
2018-07-12T01:47:51.146Z,14.94
2018-07-12T01:50:23.777Z,14.81
2018-07-12T01:52:56.449Z,14.26
2018-07-12T01:55:29.087Z,14.19
2018-07-12T01:58:01.636Z,14.05
2018-07-12T02:00:34.439Z,13.93
2018-07-12T02:03:07.000Z,13.42
2018-07-12T02:05:39.680Z,13.24
2018-07-12T02:08:12.200Z,13.16
2018-07-12T02:10:44.862Z,13.09
2018-07-12T02:13:17.395Z,13.12
2018-07-12T02:15:50.057Z,13.13
2018-07-12T02:18:22.576Z,13.12
2018-07-12T02:20:55.184Z,13.29
2018-07-12T02:23:27.764Z,13.11
2018-07-12T02:26:01.453Z,13.09
2018-07-12T02:28:33.972Z,13.04
2018-07-12T02:31:06.673Z,13.14
2018-07-12T02:33:39.321Z,13.01
2018-07-12T02:36:11.938Z,13.09
2018-07-12T02:38:44.442Z,13.17
2018-07-12T02:41:17.046Z,13.31
2018-07-12T02:43:49.733Z,13.30
2018-07-12T02:46:22.425Z,13.33
2018-07-12T02:48:55.017Z,13.08
2018-07-12T02:51:27.726Z,12.97
2018-07-12T02:54:01.654Z,12.85
2018-07-12T02:56:34.350Z,12.99
2018-07-12T02:59:06.851Z,13.09
2018-07-12T03:01:39.554Z,13.22
2018-07-12T03:04:12.212Z,13.42
2018-07-12T03:06:44.902Z,13.45
2018-07-12T03:09:17.395Z,13.49
2018-07-12T03:11:50.083Z,13.44
2018-07-12T03:14:22.743Z,13.30
2018-07-12T03:16:55.300Z,13.10
2018-07-12T03:19:27.899Z,13.03
2018-07-12T03:22:00.658Z,12.93
2018-07-12T03:24:33.318Z,12.82
2018-07-12T03:27:06.958Z,12.72
2018-07-12T03:29:39.544Z,12.69
2018-07-12T03:32:12.161Z,12.73
2018-07-12T03:34:44.610Z,13.03
2018-07-12T03:37:17.374Z,13.11
2018-07-12T03:39:49.905Z,13.40
2018-07-12T03:42:22.939Z,13.64
2018-07-12T03:44:55.541Z,13.70
2018-07-12T03:47:28.150Z,13.61
2018-07-12T03:50:00.634Z,13.75
2018-07-12T03:52:33.283Z,13.84
2018-07-12T03:55:05.986Z,13.23
2018-07-12T03:57:38.790Z,13.33
2018-07-12T04:00:11.235Z,13.70
2018-07-12T04:02:43.942Z,14.04
2018-07-12T04:05:16.549Z,14.17
2018-07-12T04:07:49.186Z,14.29
2018-07-12T04:10:21.735Z,14.21
2018-07-12T04:12:54.451Z,14.26
2018-07-12T04:15:27.002Z,14.20
2018-07-12T04:17:59.696Z,14.16
2018-07-12T04:20:37.512Z,14.29
2018-07-12T04:23:10.889Z,14.44
2018-07-12T04:25:43.561Z,14.39
2018-07-12T04:28:17.332Z,14.38
2018-07-12T04:30:49.893Z,14.47
2018-07-12T04:33:22.516Z,14.58
2018-07-12T04:35:55.134Z,14.90
2018-07-12T04:38:27.757Z,15.04
2018-07-12T04:41:00.277Z,15.20
2018-07-12T04:43:32.852Z,15.33
2018-07-12T04:46:05.476Z,15.48
2018-07-12T04:48:38.065Z,15.82
2018-07-12T04:51:10.651Z,15.99
2018-07-12T04:53:43.574Z,15.97
2018-07-12T04:56:16.094Z,16.27
2018-07-12T04:58:48.803Z,16.51
2018-07-12T05:01:21.364Z,16.65
2018-07-12T05:03:54.011Z,16.91
2018-07-12T05:06:26.605Z,17.14
2018-07-12T05:08:59.260Z,17.17
2018-07-12T05:11:25.773Z,17.35
2018-07-12T05:13:53.010Z,17.48
2018-07-12T05:16:20.085Z,17.64
2018-07-12T05:18:46.610Z,17.70
2018-07-12T05:21:13.138Z,18.14
2018-07-12T05:23:39.701Z,18.27
2018-07-12T05:26:06.221Z,18.42
2018-07-12T05:28:32.758Z,18.19
2018-07-12T05:30:59.321Z,18.24
2018-07-12T05:33:26.049Z,18.45
2018-07-12T05:35:53.812Z,18.41
2018-07-12T05:41:28.849Z,19.24
2018-07-12T05:43:56.750Z,19.42
2018-07-12T05:46:24.706Z,19.58
2018-07-12T05:48:52.632Z,19.77
2018-07-12T05:51:20.508Z,20.03
2018-07-12T05:53:48.380Z,20.30
2018-07-12T05:56:16.318Z,20.55
2018-07-12T05:58:44.202Z,20.93
2018-07-12T06:01:23.221Z,20.94
2018-07-12T06:03:51.126Z,20.68
2018-07-12T06:06:19.013Z,20.62
2018-07-12T06:08:46.913Z,20.83
2018-07-12T06:11:14.816Z,21.21
2018-07-12T06:13:42.709Z,21.25
2018-07-12T06:16:10.759Z,21.20
2018-07-12T06:18:38.526Z,21.27
2018-07-12T06:21:06.418Z,21.46
2018-07-12T06:23:35.307Z,21.50
2018-07-12T06:26:03.200Z,21.21
2018-07-12T06:28:31.099Z,21.30
2018-07-12T06:30:59.050Z,21.46
2018-07-12T06:33:26.933Z,21.21
2018-07-12T06:36:00.978Z,21.50
2018-07-12T06:38:28.862Z,21.86
2018-07-12T06:40:56.744Z,22.07
2018-07-12T06:43:24.875Z,22.37
2018-07-12T06:45:52.780Z,22.39
2018-07-12T06:48:20.744Z,22.49
2018-07-12T06:50:48.658Z,22.26
2018-07-12T06:53:16.563Z,22.59
2018-07-12T06:55:44.464Z,23.21
2018-07-12T06:58:12.411Z,23.15
2018-07-12T07:00:40.380Z,22.87
2018-07-12T07:03:08.513Z,23.32
2018-07-12T07:05:36.616Z,23.78
2018-07-12T07:08:04.484Z,23.68
2018-07-12T07:10:32.370Z,23.27
2018-07-12T07:13:00.302Z,23.11
2018-07-12T07:15:28.187Z,23.42
2018-07-12T07:17:56.066Z,23.75
2018-07-12T07:20:23.975Z,23.38
2018-07-12T07:22:51.882Z,23.76
2018-07-12T07:25:19.906Z,23.62
2018-07-12T07:27:48.177Z,23.37
2018-07-12T07:30:16.125Z,23.50
2018-07-12T07:32:44.005Z,23.93
2018-07-12T07:35:11.931Z,24.36
2018-07-12T07:37:39.910Z,24.59
2018-07-12T07:40:07.804Z,24.49
2018-07-12T07:42:35.726Z,24.92
2018-07-12T07:45:03.912Z,25.60
2018-07-12T07:47:31.819Z,25.26
2018-07-12T07:50:00.401Z,24.70
2018-07-12T07:52:28.346Z,25.04
2018-07-12T07:54:56.240Z,25.14
2018-07-12T07:57:24.242Z,25.17
2018-07-12T07:59:52.121Z,25.41
2018-07-12T08:02:20.001Z,25.56
2018-07-12T08:04:47.925Z,25.64
2018-07-12T08:07:15.786Z,25.78
2018-07-12T08:09:43.708Z,25.69
2018-07-12T08:12:11.842Z,25.44
2018-07-12T08:14:40.076Z,25.82
2018-07-12T08:17:07.986Z,25.61
2018-07-12T08:19:35.893Z,25.52
2018-07-12T08:22:06.345Z,26.07
2018-07-12T08:24:39.857Z,26.31
2018-07-12T08:27:10.827Z,26.29
2018-07-12T08:29:39.655Z,26.44
2018-07-12T08:32:07.659Z,26.70
2018-07-12T08:34:35.589Z,26.18
2018-07-12T08:37:03.573Z,25.97
2018-07-12T08:39:31.482Z,26.52
2018-07-12T08:41:59.368Z,27.11
2018-07-12T08:44:27.260Z,26.73
2018-07-12T08:46:55.283Z,26.61
2018-07-12T08:49:23.165Z,26.34
2018-07-12T08:51:51.200Z,26.51
2018-07-12T08:54:19.160Z,27.05
2018-07-12T08:56:47.180Z,26.82
2018-07-12T08:59:15.355Z,27.36
2018-07-12T09:01:43.260Z,27.53
2018-07-12T09:04:11.134Z,27.91
2018-07-12T09:06:39.005Z,28.00
2018-07-12T09:09:07.418Z,27.79
2018-07-12T09:11:35.320Z,27.91
2018-07-12T09:14:03.275Z,27.95
2018-07-12T09:16:31.235Z,28.00
2018-07-12T09:18:59.191Z,28.05
2018-07-12T09:21:27.073Z,27.92
2018-07-12T09:23:55.003Z,27.94
2018-07-12T09:26:28.954Z,28.11
2018-07-12T09:29:03.004Z,27.81
2018-07-12T09:31:36.960Z,28.31
2018-07-12T09:34:04.954Z,28.21
2018-07-12T09:36:32.977Z,28.03
2018-07-12T09:39:01.016Z,28.46
2018-07-12T09:41:28.954Z,27.99
2018-07-12T09:43:56.867Z,28.40
2018-07-12T09:46:24.755Z,28.82
2018-07-12T09:48:57.980Z,28.51
2018-07-12T09:51:33.622Z,28.32
2018-07-12T09:54:09.809Z,28.12
2018-07-12T09:56:53.195Z,28.65
2018-07-12T09:59:21.265Z,28.64
2018-07-12T10:03:58.152Z,28.99
2018-07-12T10:06:38.386Z,29.05
2018-07-12T10:09:12.437Z,29.32
2018-07-12T10:11:45.878Z,29.19
2018-07-12T10:14:19.390Z,28.82
2018-07-12T10:16:51.769Z,29.23
2018-07-12T10:19:19.656Z,29.57
2018-07-12T10:21:47.540Z,30.16
2018-07-12T10:24:15.739Z,30.17
2018-07-12T10:26:43.702Z,30.33
2018-07-12T10:29:11.649Z,30.48
2018-07-12T10:31:39.619Z,30.38
2018-07-12T10:34:07.528Z,30.66
2018-07-12T10:36:35.407Z,29.96
2018-07-12T10:39:03.839Z,29.75
2018-07-12T10:41:31.754Z,30.37
2018-07-12T10:43:59.749Z,30.41
2018-07-12T10:46:27.813Z,30.64
2018-07-12T10:48:55.864Z,29.82
2018-07-12T10:51:23.815Z,30.22
2018-07-12T10:53:51.949Z,30.59
2018-07-12T10:56:19.963Z,30.59
2018-07-12T10:58:47.901Z,30.65
2018-07-12T11:01:15.997Z,30.32
2018-07-12T11:03:43.977Z,30.65
2018-07-12T11:06:11.929Z,31.18
2018-07-12T11:08:39.956Z,31.26
2018-07-12T11:11:07.909Z,31.17
2018-07-12T11:13:47.370Z,31.23
2018-07-12T11:16:15.325Z,31.28
2018-07-12T11:18:43.901Z,31.50
2018-07-12T11:21:12.213Z,31.08
2018-07-12T11:23:40.465Z,31.48
2018-07-12T11:26:08.528Z,30.80
2018-07-12T11:28:36.453Z,30.75
2018-07-12T11:31:04.415Z,30.87
2018-07-12T11:33:36.436Z,30.38
2018-07-12T11:38:58.730Z,31.05
2018-07-12T11:41:28.487Z,31.63
2018-07-12T11:43:56.385Z,31.63
2018-07-12T11:46:24.356Z,32.04
2018-07-12T11:48:52.253Z,30.64
2018-07-12T11:51:20.140Z,30.73
2018-07-12T11:53:48.066Z,30.67
2018-07-12T11:56:15.945Z,31.10
2018-07-12T11:58:43.924Z,31.41
2018-07-12T12:01:11.896Z,31.62
2018-07-12T12:03:39.805Z,31.77
2018-07-12T12:06:07.701Z,31.77
2018-07-12T12:08:35.635Z,31.76
2018-07-12T12:11:03.541Z,31.37
2018-07-12T12:13:31.430Z,30.17
2018-07-12T12:15:59.340Z,30.66
2018-07-12T12:18:27.206Z,31.38
2018-07-12T12:20:55.093Z,30.75
2018-07-12T12:23:23.205Z,31.12
2018-07-12T12:25:51.091Z,31.74
2018-07-12T12:28:18.989Z,31.45
2018-07-12T12:30:46.925Z,31.49
2018-07-12T12:33:14.806Z,31.60
2018-07-12T12:35:42.705Z,31.42
2018-07-12T12:38:10.665Z,31.40
2018-07-12T12:40:38.546Z,31.64
2018-07-12T12:43:06.457Z,31.29
2018-07-12T12:45:34.795Z,30.92
2018-07-12T12:48:02.685Z,31.13
2018-07-12T12:50:30.556Z,30.77
2018-07-12T12:52:58.460Z,30.55
2018-07-12T12:55:26.384Z,31.22
2018-07-12T12:57:54.365Z,31.64
2018-07-12T13:00:22.477Z,31.10
2018-07-12T13:02:50.359Z,31.30
2018-07-12T13:05:18.247Z,31.48
2018-07-12T13:07:46.996Z,31.13
2018-07-12T13:10:14.937Z,31.46
2018-07-12T13:12:42.814Z,31.56
2018-07-12T13:15:10.749Z,32.04
2018-07-12T13:17:38.737Z,31.47
2018-07-12T13:20:06.722Z,31.68
2018-07-12T13:22:34.670Z,31.48
2018-07-12T13:25:02.709Z,31.69
2018-07-12T13:27:30.643Z,31.42
2018-07-12T13:29:58.644Z,31.70
2018-07-12T13:32:26.557Z,31.72
2018-07-12T13:34:54.454Z,31.64
2018-07-12T13:37:22.386Z,32.41
2018-07-12T13:39:50.288Z,31.79
2018-07-12T13:42:18.189Z,31.91
2018-07-12T13:44:46.098Z,32.09
2018-07-12T13:47:13.997Z,31.42
2018-07-12T13:49:41.895Z,31.82
2018-07-12T13:52:09.916Z,31.95
2018-07-12T13:54:38.336Z,32.11
2018-07-12T13:57:06.221Z,32.30
2018-07-12T13:59:34.190Z,31.50
2018-07-12T14:02:02.230Z,32.37
2018-07-12T14:04:30.133Z,32.36
2018-07-12T14:06:58.061Z,31.90
2018-07-12T14:09:25.938Z,31.58
2018-07-12T14:11:53.848Z,31.69
2018-07-12T14:14:21.812Z,32.42
2018-07-12T14:16:50.153Z,32.66
2018-07-12T14:19:18.055Z,32.02
2018-07-12T14:21:45.995Z,32.51
2018-07-12T14:24:13.913Z,32.71
2018-07-12T14:26:41.813Z,33.25
2018-07-12T14:29:09.756Z,32.37
2018-07-12T14:31:37.650Z,32.93
2018-07-12T14:34:05.656Z,33.09
2018-07-12T14:36:33.993Z,32.78
2018-07-12T14:39:01.936Z,32.79
2018-07-12T14:41:29.979Z,33.21
2018-07-12T14:43:57.952Z,33.05
2018-07-12T14:46:31.905Z,32.97
2018-07-12T14:48:59.884Z,33.27
2018-07-12T14:51:27.807Z,33.53
2018-07-12T14:53:55.700Z,33.42
2018-07-12T14:56:23.669Z,33.18
2018-07-12T14:58:51.582Z,32.92
2018-07-12T15:01:24.672Z,33.05
2018-07-12T15:03:53.245Z,32.71
2018-07-12T15:06:21.241Z,33.22
2018-07-12T15:08:49.234Z,32.90
2018-07-12T15:11:17.125Z,32.02
2018-07-12T15:13:45.066Z,31.13
2018-07-12T15:16:13.063Z,30.43
2018-07-12T15:18:40.945Z,30.59
2018-07-12T15:21:08.857Z,30.92
2018-07-12T15:23:36.824Z,31.43
2018-07-12T15:26:04.776Z,31.81
2018-07-12T15:28:33.000Z,32.55
2018-07-12T15:31:00.916Z,32.50
2018-07-12T15:33:28.833Z,32.65
2018-07-12T15:35:56.840Z,32.72
2018-07-12T15:38:24.932Z,32.84
2018-07-12T15:40:52.829Z,31.95
2018-07-12T15:43:20.747Z,30.54
2018-07-12T15:45:48.994Z,29.49
2018-07-12T15:48:16.885Z,28.81
2018-07-12T15:50:45.743Z,28.53
2018-07-12T15:53:13.669Z,28.19
2018-07-12T15:55:41.558Z,28.05
2018-07-12T15:58:09.595Z,28.12
2018-07-12T16:00:37.993Z,28.00
2018-07-12T16:03:05.890Z,27.87
2018-07-12T16:05:33.881Z,27.71
2018-07-12T16:08:01.829Z,27.56
2018-07-12T16:10:29.716Z,27.36
2018-07-12T16:12:57.628Z,27.22
2018-07-12T16:15:25.642Z,26.96
2018-07-12T16:17:53.571Z,26.79
2018-07-12T16:20:21.449Z,26.56
2018-07-12T16:22:49.579Z,26.61
2018-07-12T16:25:17.478Z,26.54
2018-07-12T16:27:45.385Z,26.42
2018-07-12T16:30:13.331Z,26.39
2018-07-12T16:32:41.204Z,26.22
2018-07-12T16:35:10.082Z,25.99
2018-07-12T16:37:38.012Z,25.95
2018-07-12T16:40:05.922Z,25.94
2018-07-12T16:42:33.804Z,25.80
2018-07-12T16:45:01.805Z,25.87
2018-07-12T16:47:30.224Z,25.96
2018-07-12T16:50:01.125Z,26.18
2018-07-12T16:52:29.048Z,26.20
2018-07-12T16:54:56.938Z,26.26
2018-07-12T16:57:24.897Z,26.41
2018-07-12T16:59:52.839Z,26.57
2018-07-12T17:02:20.729Z,26.61
2018-07-12T17:04:48.653Z,26.44
2018-07-12T17:07:16.775Z,26.46
2018-07-12T17:09:44.657Z,26.53
2018-07-12T17:12:12.575Z,26.33
2018-07-12T17:14:40.643Z,26.01
2018-07-12T17:17:08.519Z,25.98
2018-07-12T17:19:36.476Z,25.56
2018-07-12T17:22:04.386Z,25.52
2018-07-12T17:24:32.260Z,25.44
2018-07-12T17:27:00.138Z,25.35
2018-07-12T17:29:28.245Z,25.11
2018-07-12T17:31:56.127Z,24.79
2018-07-12T17:34:24.022Z,24.89
2018-07-12T17:36:52.371Z,24.73
2018-07-12T17:39:20.283Z,24.90
2018-07-12T17:41:48.557Z,24.83
2018-07-12T17:44:16.667Z,24.75
2018-07-12T17:46:44.536Z,24.67
2018-07-12T17:49:13.676Z,24.57
2018-07-12T17:51:42.086Z,24.49
2018-07-12T17:54:09.970Z,24.43
2018-07-12T17:56:37.838Z,24.28
2018-07-12T17:59:05.891Z,24.11
2018-07-12T18:01:33.928Z,24.02
2018-07-12T18:04:02.110Z,23.90
2018-07-12T18:06:30.574Z,23.82
2018-07-12T18:08:58.568Z,23.66
2018-07-12T18:11:26.654Z,23.56
2018-07-12T18:13:55.193Z,23.34
2018-07-12T18:16:23.074Z,23.33
2018-07-12T18:18:50.942Z,22.93
2018-07-12T18:21:19.728Z,22.69
2018-07-12T18:23:47.616Z,21.99
2018-07-12T18:26:15.807Z,22.05
2018-07-12T18:28:43.730Z,22.05
2018-07-12T18:31:11.605Z,22.10
2018-07-12T18:33:39.480Z,22.36
2018-07-12T18:36:07.465Z,22.34
2018-07-12T18:38:35.342Z,22.24
2018-07-12T18:41:03.323Z,22.22
2018-07-12T18:43:31.282Z,22.21
2018-07-12T18:45:59.353Z,22.12
2018-07-12T18:48:27.256Z,22.04
2018-07-12T18:50:55.433Z,21.96
2018-07-12T18:53:23.322Z,21.91
2018-07-12T18:55:51.272Z,21.85
2018-07-12T18:58:19.243Z,21.75
2018-07-12T19:00:47.181Z,21.78
2018-07-12T19:03:15.505Z,21.67
2018-07-12T19:05:43.449Z,21.51
2018-07-12T19:08:11.332Z,21.48
2018-07-12T19:10:39.293Z,21.41
2018-07-12T19:13:07.207Z,21.08
2018-07-12T19:15:35.098Z,20.75
2018-07-12T19:18:02.964Z,20.40
2018-07-12T19:20:30.931Z,19.98
2018-07-12T19:22:58.920Z,19.73
2018-07-12T19:25:27.518Z,19.68
2018-07-12T19:27:55.499Z,19.68
2018-07-12T19:30:24.020Z,19.59
2018-07-12T19:32:51.927Z,19.81
2018-07-12T19:35:19.961Z,20.05
2018-07-12T19:37:47.854Z,20.27
2018-07-12T19:40:15.776Z,20.35
2018-07-12T19:42:43.962Z,20.34
2018-07-12T19:45:11.934Z,20.39
2018-07-12T19:47:39.820Z,20.33
2018-07-12T19:50:07.779Z,20.20
2018-07-12T19:52:35.648Z,20.22
2018-07-12T19:55:03.999Z,20.28
2018-07-12T19:57:33.033Z,19.96
2018-07-12T20:00:07.502Z,19.92
2018-07-12T20:02:41.622Z,19.92
2018-07-12T20:05:15.522Z,19.93
2018-07-12T20:07:49.464Z,19.91
2018-07-12T20:10:23.600Z,19.83
2018-07-12T20:12:59.309Z,19.81
2018-07-12T20:15:33.508Z,19.64
2018-07-12T20:18:07.493Z,19.60
2018-07-12T20:20:41.524Z,19.44
2018-07-12T20:23:15.802Z,19.31
2018-07-12T20:25:49.702Z,19.26
2018-07-12T20:28:23.953Z,19.43
2018-07-12T20:30:58.862Z,19.48
2018-07-12T20:33:33.084Z,19.29
2018-07-12T20:36:09.195Z,19.37
2018-07-12T20:38:44.102Z,19.23
2018-07-12T20:41:18.651Z,19.21
2018-07-12T20:43:53.483Z,19.24
2018-07-12T20:46:28.090Z,19.34
2018-07-12T20:49:04.519Z,19.31
2018-07-12T20:51:39.214Z,19.13
2018-07-12T20:54:14.172Z,18.98
2018-07-12T20:56:48.944Z,18.71
2018-07-12T20:59:24.414Z,18.20
2018-07-12T21:01:59.117Z,18.15
2018-07-12T21:04:33.570Z,18.27
2018-07-12T21:07:07.459Z,17.99
2018-07-12T21:09:41.402Z,17.91
2018-07-12T21:12:15.399Z,17.93
2018-07-12T21:14:50.291Z,18.06
2018-07-12T21:17:24.441Z,18.23
2018-07-12T21:19:58.981Z,18.21
2018-07-12T21:22:33.065Z,18.26
2018-07-12T21:25:07.039Z,18.42
2018-07-12T21:27:40.946Z,18.37
2018-07-12T21:30:14.931Z,18.11
2018-07-12T21:32:48.877Z,18.27
2018-07-12T21:35:23.086Z,18.22
2018-07-12T21:37:57.026Z,17.83
2018-07-12T21:40:30.976Z,17.85
2018-07-12T21:43:05.086Z,17.91
2018-07-12T21:45:39.118Z,18.03
2018-07-12T21:48:13.145Z,17.61
2018-07-12T21:50:47.239Z,17.44
2018-07-12T21:53:21.137Z,17.11
2018-07-12T21:55:55.194Z,16.88
2018-07-12T21:58:29.166Z,16.54
2018-07-12T22:01:03.187Z,16.44
2018-07-12T22:03:37.280Z,16.53
2018-07-12T22:06:11.882Z,16.75
2018-07-12T22:08:46.037Z,16.79
2018-07-12T22:11:19.905Z,16.42
2018-07-12T22:13:53.984Z,16.41
2018-07-12T22:16:28.757Z,16.54
2018-07-12T22:19:02.653Z,16.81
2018-07-12T22:21:36.683Z,17.00
2018-07-12T22:24:10.488Z,17.23
2018-07-12T22:26:44.401Z,17.33
2018-07-12T22:29:18.377Z,17.38
2018-07-12T22:31:52.364Z,17.30
2018-07-12T22:34:26.274Z,17.31
2018-07-12T22:37:00.407Z,17.14
2018-07-12T22:39:34.306Z,17.05
2018-07-12T22:42:08.368Z,16.88
2018-07-12T22:44:42.283Z,16.72
2018-07-12T22:47:16.288Z,16.11
2018-07-12T22:49:50.175Z,15.85
2018-07-12T22:52:24.158Z,15.88
2018-07-12T22:54:58.071Z,15.91
2018-07-12T22:57:32.046Z,15.84
2018-07-12T23:00:06.580Z,15.93
2018-07-12T23:02:40.474Z,15.99
2018-07-12T23:05:14.453Z,16.01
2018-07-12T23:07:48.642Z,16.05
2018-07-12T23:10:22.665Z,16.31
2018-07-12T23:12:56.661Z,16.18
2018-07-12T23:15:30.635Z,16.13
2018-07-12T23:18:04.852Z,16.22
2018-07-12T23:20:38.916Z,16.39
2018-07-12T23:23:13.442Z,16.61
2018-07-12T23:25:47.356Z,16.79
2018-07-12T23:28:21.286Z,16.57
2018-07-12T23:30:55.385Z,16.00
2018-07-12T23:33:29.535Z,16.02
2018-07-12T23:36:03.358Z,16.26
2018-07-12T23:38:37.519Z,15.68
2018-07-12T23:41:11.452Z,15.42
2018-07-12T23:43:45.439Z,15.29
2018-07-12T23:46:19.312Z,15.43
2018-07-12T23:48:53.233Z,15.68
2018-07-12T23:51:27.295Z,15.94
2018-07-12T23:54:01.937Z,15.96
2018-07-12T23:56:35.988Z,16.14
2018-07-12T23:59:10.087Z,16.08
